Time;durP1;ratioP1;P1;durP2;ratioP2;P2;SDS_P1;SDS_P2;PMS_P1;PMS_P2;Temp;Humidity;BMP_temperature;BMP_pressure;BME280_temperature;BME280_humidity;BME280_pressure;Samples;Min_cycle;Max_cycle;Signal;HPM_P1;HPM_P2
2022/09/12 00:02:02;;;;;;;27.97;25.97;;;;;;;;;;5114656;28;20787;-81
2022/09/12 00:04:30;;;;;;;27.20;25.20;;;;;;;;;;5115136;28;20418;-82
2022/09/12 00:06:57;;;;;;;37.83;35.17;;;;;;;;;;5115265;28;20419;-81
2022/09/12 00:09:24;;;;;;;28.43;26.43;;;;;;;;;;5114913;28;20461;-81
2022/09/12 00:11:51;;;;;;;54.30;51.23;;;;;;;;;;5114305;28;20437;-82
2022/09/12 00:14:20;;;;;;;29.77;26.90;;;;;;;;;;5114697;28;20951;-82
2022/09/12 00:16:47;;;;;;;30.27;28.03;;;;;;;;;;5115016;28;20444;-81
2022/09/12 00:19:17;;;;;;;73.30;68.93;;;;;;;;;;5117390;28;20484;-82
2022/09/12 00:21:44;;;;;;;30.10;27.90;;;;;;;;;;5118616;28;20943;-81
2022/09/12 00:24:12;;;;;;;29.23;26.83;;;;;;;;;;5119312;28;20444;-81
2022/09/12 00:26:39;;;;;;;30.17;27.70;;;;;;;;;;5119116;28;20422;-81
2022/09/12 00:29:06;;;;;;;28.50;26.40;;;;;;;;;;5119176;28;20442;-81
2022/09/12 00:31:34;;;;;;;27.63;25.57;;;;;;;;;;5118874;28;20432;-81
2022/09/12 00:34:01;;;;;;;30.53;27.90;;;;;;;;;;5119063;28;20451;-81
2022/09/12 00:36:30;;;;;;;30.17;27.57;;;;;;;;;;5119099;28;20451;-82
2022/09/12 00:38:58;;;;;;;30.90;28.13;;;;;;;;;;5119180;28;20539;-81
2022/09/12 00:41:27;;;;;;;28.93;26.63;;;;;;;;;;5118446;28;20464;-81
2022/09/12 00:43:55;;;;;;;28.43;26.10;;;;;;;;;;5119252;28;20414;-81
2022/09/12 00:46:33;;;;;;;28.17;25.63;;;;;;;;;;5119109;28;20417;-81
2022/09/12 00:49:02;;;;;;;29.27;27.07;;;;;;;;;;5118906;28;20443;-81
2022/09/12 00:51:33;;;;;;;29.80;27.27;;;;;;;;;;5118456;28;20443;-82
2022/09/12 00:54:01;;;;;;;27.33;25.40;;;;;;;;;;5118506;28;20435;-82
2022/09/12 00:56:28;;;;;;;61.47;57.90;;;;;;;;;;5118849;28;20455;-82
2022/09/12 00:58:57;;;;;;;29.47;27.07;;;;;;;;;;5118317;28;20467;-82
2022/09/12 01:01:24;;;;;;;37.47;34.73;;;;;;;;;;5118207;28;20932;-82
2022/09/12 01:03:52;;;;;;;28.97;26.73;;;;;;;;;;5118149;28;20419;-82
2022/09/12 01:06:22;;;;;;;188.47;173.30;;;;;;;;;;5118310;28;20447;-81
2022/09/12 01:08:51;;;;;;;33.20;30.47;;;;;;;;;;5118253;28;20565;-81
2022/09/12 01:11:20;;;;;;;36.93;33.77;;;;;;;;;;5117455;28;20829;-82
2022/09/12 01:13:48;;;;;;;28.90;26.50;;;;;;;;;;5117965;28;20414;-82
2022/09/12 01:16:16;;;;;;;31.30;28.80;;;;;;;;;;5117743;28;20475;-80
2022/09/12 01:18:49;;;;;;;31.40;28.83;;;;;;;;;;5118024;28;20480;-81
2022/09/12 01:21:20;;;;;;;33.17;30.43;;;;;;;;;;5117395;28;20428;-81
2022/09/12 01:24:08;;;;;;;33.23;30.43;;;;;;;;;;5117741;28;20429;-81
2022/09/12 01:26:51;;;;;;;31.03;28.53;;;;;;;;;;5117469;28;20420;-81
2022/09/12 01:29:26;;;;;;;129.63;121.27;;;;;;;;;;5116785;28;20457;-82
2022/09/12 01:31:59;;;;;;;30.47;27.97;;;;;;;;;;5117256;28;20812;-81
2022/09/12 01:34:31;;;;;;;165.47;152.93;;;;;;;;;;5117276;28;20417;-81
2022/09/12 01:37:02;;;;;;;32.60;29.67;;;;;;;;;;5117155;28;20511;-81
2022/09/12 01:39:31;;;;;;;30.30;28.00;;;;;;;;;;5117160;28;20448;-81
2022/09/12 01:42:06;;;;;;;31.23;28.50;;;;;;;;;;5116840;28;20943;-82
2022/09/12 01:44:37;;;;;;;79.60;74.73;;;;;;;;;;5117143;28;20433;-81
2022/09/12 01:47:07;;;;;;;29.00;26.70;;;;;;;;;;5117276;27;20888;-81
2022/09/12 01:49:39;;;;;;;30.97;28.37;;;;;;;;;;5117406;28;20465;-81
2022/09/12 01:52:08;;;;;;;191.93;177.37;;;;;;;;;;5116789;28;20439;-82
2022/09/12 01:54:38;;;;;;;30.03;27.47;;;;;;;;;;5116875;28;20444;-81
2022/09/12 01:57:09;;;;;;;29.87;27.50;;;;;;;;;;5116806;28;20987;-81
2022/09/12 01:59:41;;;;;;;30.63;28.23;;;;;;;;;;5116827;28;20427;-81
2022/09/12 02:02:13;;;;;;;31.00;28.47;;;;;;;;;;5116135;28;20552;-81
2022/09/12 02:04:44;;;;;;;31.07;28.57;;;;;;;;;;5115843;28;20391;-81
2022/09/12 02:07:12;;;;;;;29.60;27.30;;;;;;;;;;5116099;28;20509;-81
2022/09/12 02:09:43;;;;;;;68.33;63.43;;;;;;;;;;5115732;28;20470;-81
2022/09/12 02:12:12;;;;;;;30.43;27.60;;;;;;;;;;5115460;28;20413;-81
2022/09/12 02:14:41;;;;;;;64.97;61.27;;;;;;;;;;5115780;28;20489;-81
2022/09/12 02:17:10;;;;;;;28.83;26.47;;;;;;;;;;5115887;28;20450;-83
2022/09/12 02:19:41;;;;;;;28.67;26.20;;;;;;;;;;5115780;28;20819;-81
2022/09/12 02:22:10;;;;;;;148.07;139.23;;;;;;;;;;5115303;28;20418;-81
2022/09/12 02:24:39;;;;;;;28.80;26.30;;;;;;;;;;5115406;28;20439;-81
2022/09/12 02:27:10;;;;;;;196.30;181.93;;;;;;;;;;5115653;28;20418;-82
2022/09/12 02:29:38;;;;;;;28.83;26.70;;;;;;;;;;5115619;28;20475;-81
2022/09/12 02:32:07;;;;;;;27.57;25.13;;;;;;;;;;5115136;28;20439;-82
2022/09/12 02:34:41;;;;;;;27.70;25.73;;;;;;;;;;5115500;28;20429;-81
2022/09/12 02:37:13;;;;;;;198.67;175.30;;;;;;;;;;5115515;28;20805;-81
2022/09/12 02:39:40;;;;;;;27.57;25.27;;;;;;;;;;5115208;28;20427;-81
2022/09/12 02:42:07;;;;;;;75.73;71.33;;;;;;;;;;5114658;28;20913;-81
2022/09/12 02:44:36;;;;;;;25.97;24.17;;;;;;;;;;5115146;28;20459;-81
2022/09/12 02:47:05;;;;;;;30.07;27.67;;;;;;;;;;5114976;28;20998;-82
2022/09/12 02:49:33;;;;;;;86.23;80.17;;;;;;;;;;5115076;28;20479;-82
2022/09/12 02:52:01;;;;;;;31.23;28.77;;;;;;;;;;5114778;28;20451;-82
2022/09/12 02:54:31;;;;;;;77.60;72.70;;;;;;;;;;5114916;28;20436;-81
2022/09/12 02:56:58;;;;;;;29.00;26.90;;;;;;;;;;5114801;28;20541;-81
2022/09/12 02:59:26;;;;;;;29.80;27.27;;;;;;;;;;5114850;28;20434;-82
2022/09/12 03:01:59;;;;;;;26.93;24.90;;;;;;;;;;5114890;28;20448;-82
2022/09/12 03:04:35;;;;;;;156.97;144.80;;;;;;;;;;5115719;28;20431;-82
2022/09/12 03:07:11;;;;;;;28.50;26.20;;;;;;;;;;5115676;28;20927;-81
2022/09/12 03:09:44;;;;;;;30.23;27.70;;;;;;;;;;5115750;28;20492;-82
2022/09/12 03:12:20;;;;;;;29.63;27.13;;;;;;;;;;5114943;28;20400;-82
2022/09/12 03:15:00;;;;;;;40.40;37.33;;;;;;;;;;5115238;28;20889;-82
2022/09/12 03:17:34;;;;;;;28.10;26.10;;;;;;;;;;5115418;28;20872;-81
2022/09/12 03:20:02;;;;;;;25.97;24.07;;;;;;;;;;5115270;28;20450;-82
2022/09/12 03:22:33;;;;;;;38.53;35.87;;;;;;;;;;5114800;28;20447;-82
2022/09/12 03:25:06;;;;;;;27.80;25.70;;;;;;;;;;5114841;28;20407;-82
2022/09/12 03:27:35;;;;;;;28.93;26.20;;;;;;;;;;5114723;28;20759;-81
2022/09/12 03:30:04;;;;;;;29.90;27.30;;;;;;;;;;5116573;28;20976;-81
2022/09/12 03:32:40;;;;;;;110.50;104.07;;;;;;;;;;5114720;28;20422;-82
2022/09/12 03:35:08;;;;;;;65.30;61.37;;;;;;;;;;5114621;28;20438;-82
2022/09/12 03:37:35;;;;;;;123.67;115.77;;;;;;;;;;5114459;28;20486;-82
2022/09/12 03:40:04;;;;;;;26.23;24.23;;;;;;;;;;5114606;28;21000;-81
2022/09/12 03:42:32;;;;;;;25.43;23.60;;;;;;;;;;5114342;28;20473;-82
2022/09/12 03:44:59;;;;;;;26.60;24.60;;;;;;;;;;5114872;28;20487;-82
2022/09/12 03:47:26;;;;;;;29.30;26.63;;;;;;;;;;5114440;28;20440;-81
2022/09/12 03:49:53;;;;;;;62.07;58.27;;;;;;;;;;5114829;28;20450;-81
2022/09/12 03:52:21;;;;;;;93.93;88.10;;;;;;;;;;5114149;28;20414;-82
2022/09/12 03:54:48;;;;;;;27.17;25.30;;;;;;;;;;5118636;28;20929;-82
2022/09/12 03:57:17;;;;;;;34.80;32.60;;;;;;;;;;5118729;28;20475;-82
2022/09/12 03:59:45;;;;;;;42.90;40.27;;;;;;;;;;5119098;28;20442;-81
2022/09/12 04:02:12;;;;;;;27.20;25.03;;;;;;;;;;5118515;28;20958;-81
2022/09/12 04:04:42;;;;;;;26.23;24.20;;;;;;;;;;5119088;28;20910;-82
2022/09/12 04:07:09;;;;;;;27.63;25.37;;;;;;;;;;5118564;28;20422;-81
2022/09/12 04:09:37;;;;;;;26.10;24.00;;;;;;;;;;5118339;28;20551;-82
2022/09/12 04:12:04;;;;;;;27.03;24.87;;;;;;;;;;5118423;28;20424;-82
2022/09/12 04:14:33;;;;;;;27.17;24.93;;;;;;;;;;5118419;28;20433;-81
2022/09/12 04:17:00;;;;;;;26.13;24.00;;;;;;;;;;5118376;28;20476;-82
2022/09/12 04:19:28;;;;;;;28.33;25.80;;;;;;;;;;5118493;28;20467;-82
2022/09/12 04:21:55;;;;;;;29.63;27.27;;;;;;;;;;5118025;28;20441;-82
2022/09/12 04:24:22;;;;;;;26.47;24.40;;;;;;;;;;5118231;28;20437;-82
2022/09/12 04:26:50;;;;;;;26.33;24.13;;;;;;;;;;5118212;28;20414;-81
2022/09/12 04:29:17;;;;;;;28.37;26.10;;;;;;;;;;5118057;28;20472;-81
2022/09/12 04:31:46;;;;;;;27.07;24.93;;;;;;;;;;5117334;28;20429;-82
2022/09/12 04:34:13;;;;;;;38.37;35.43;;;;;;;;;;5117639;28;20960;-82
2022/09/12 04:36:43;;;;;;;28.00;25.13;;;;;;;;;;5117885;28;20508;-81
2022/09/12 04:39:11;;;;;;;26.23;24.17;;;;;;;;;;5118254;28;20453;-81
2022/09/12 04:41:39;;;;;;;32.63;30.13;;;;;;;;;;5117116;28;20464;-82
2022/09/12 04:44:07;;;;;;;29.60;26.07;;;;;;;;;;5118027;28;20402;-81
2022/09/12 04:46:35;;;;;;;33.87;31.23;;;;;;;;;;5117653;28;20415;-81
2022/09/12 04:49:04;;;;;;;27.10;24.80;;;;;;;;;;5117327;28;20430;-82
2022/09/12 04:51:33;;;;;;;28.20;25.80;;;;;;;;;;5117147;28;20839;-82
2022/09/12 04:54:03;;;;;;;131.20;122.20;;;;;;;;;;5117144;28;20835;-81
2022/09/12 04:56:30;;;;;;;33.43;31.10;;;;;;;;;;5116767;28;20907;-78
2022/09/12 04:58:59;;;;;;;81.63;76.70;;;;;;;;;;5116409;28;20478;-79
2022/09/12 05:01:28;;;;;;;42.53;39.17;;;;;;;;;;5116349;28;20459;-79
2022/09/12 05:03:56;;;;;;;61.33;56.83;;;;;;;;;;5116707;28;20467;-80
2022/09/12 05:06:25;;;;;;;176.90;158.90;;;;;;;;;;5118048;28;20907;-80
2022/09/12 05:08:54;;;;;;;157.97;144.67;;;;;;;;;;5118080;28;20467;-80
2022/09/12 05:11:23;;;;;;;62.47;58.37;;;;;;;;;;5117157;28;21051;-80
2022/09/12 05:13:50;;;;;;;145.17;134.97;;;;;;;;;;5117465;28;20429;-79
2022/09/12 05:16:18;;;;;;;43.33;40.20;;;;;;;;;;5117942;27;20479;-80
2022/09/12 05:18:46;;;;;;;153.77;142.27;;;;;;;;;;5117874;28;20486;-80
2022/09/12 05:21:15;;;;;;;112.67;105.00;;;;;;;;;;5117197;28;20455;-79
2022/09/12 05:23:44;;;;;;;69.30;64.97;;;;;;;;;;5118001;28;20455;-80
2022/09/12 05:26:13;;;;;;;109.10;102.23;;;;;;;;;;5118142;28;21009;-80
2022/09/12 05:28:41;;;;;;;33.53;31.07;;;;;;;;;;5117718;28;20468;-80
2022/09/12 05:31:11;;;;;;;73.53;68.53;;;;;;;;;;5117474;28;20429;-79
2022/09/12 05:33:39;;;;;;;94.50;88.97;;;;;;;;;;5117394;28;20951;-80
2022/09/12 05:36:07;;;;;;;151.67;141.10;;;;;;;;;;5116994;28;20430;-79
2022/09/12 05:38:35;;;;;;;175.00;160.73;;;;;;;;;;5117221;28;20973;-80
2022/09/12 05:41:07;;;;;;;42.37;38.13;;;;;;;;;;5117013;28;20439;-80
2022/09/12 05:43:35;;;;;;;32.23;29.87;;;;;;;;;;5117266;28;20429;-80
2022/09/12 05:46:03;;;;;;;168.50;156.63;;;;;;;;;;5116743;28;20430;-79
2022/09/12 05:48:34;;;;;;;95.87;90.30;;;;;;;;;;5117209;28;20466;-80
2022/09/12 05:51:02;;;;;;;163.60;150.53;;;;;;;;;;5116094;27;20933;-80
2022/09/12 05:53:30;;;;;;;68.07;64.07;;;;;;;;;;5116982;28;20422;-79
2022/09/12 05:56:12;;;;;;;126.33;118.63;;;;;;;;;;5117331;28;20458;-80
2022/09/12 05:58:40;;;;;;;69.67;65.10;;;;;;;;;;5116780;28;20570;-80
2022/09/12 06:01:08;;;;;;;45.10;39.67;;;;;;;;;;5116032;28;20464;-78
2022/09/12 06:03:36;;;;;;;182.10;170.10;;;;;;;;;;5116932;28;20426;-79
2022/09/12 06:06:04;;;;;;;35.53;32.17;;;;;;;;;;5116862;28;20456;-80
2022/09/12 06:08:32;;;;;;;94.60;88.73;;;;;;;;;;5116551;28;20460;-80
2022/09/12 06:11:00;;;;;;;53.40;47.80;;;;;;;;;;5115871;28;20443;-80
2022/09/12 06:13:28;;;;;;;35.63;32.83;;;;;;;;;;5116490;28;20422;-80
2022/09/12 06:15:56;;;;;;;32.90;29.63;;;;;;;;;;5115911;28;20454;-80
2022/09/12 06:18:23;;;;;;;46.50;39.73;;;;;;;;;;5115634;28;20480;-88
2022/09/12 06:20:51;;;;;;;29.10;26.70;;;;;;;;;;5118047;28;20390;-84
2022/09/12 06:23:18;;;;;;;30.33;27.80;;;;;;;;;;5117768;28;20840;-79
2022/09/12 06:25:48;;;;;;;163.83;153.97;;;;;;;;;;5117562;28;20419;-81
2022/09/12 06:28:16;;;;;;;117.60;109.03;;;;;;;;;;5116874;27;20414;-77
2022/09/12 06:30:45;;;;;;;73.07;68.00;;;;;;;;;;5117449;28;20445;-80
2022/09/12 06:33:12;;;;;;;31.17;28.47;;;;;;;;;;5116520;28;20809;-81
2022/09/12 06:35:40;;;;;;;39.53;36.37;;;;;;;;;;5117204;28;20426;-80
2022/09/12 06:38:08;;;;;;;109.47;102.37;;;;;;;;;;5117001;28;20495;-81
2022/09/12 06:40:35;;;;;;;61.03;56.60;;;;;;;;;;5117487;28;20474;-81
2022/09/12 06:43:03;;;;;;;179.70;168.27;;;;;;;;;;5116510;28;20803;-81
2022/09/12 06:45:31;;;;;;;28.67;26.33;;;;;;;;;;5116934;28;20480;-80
2022/09/12 06:48:01;;;;;;;269.87;240.87;;;;;;;;;;5116342;28;20489;-81
2022/09/12 06:50:28;;;;;;;178.43;167.90;;;;;;;;;;5116754;28;20452;-81
2022/09/12 06:52:56;;;;;;;192.67;181.63;;;;;;;;;;5116147;28;20943;-80
2022/09/12 06:55:23;;;;;;;116.73;108.67;;;;;;;;;;5116703;28;20444;-80
2022/09/12 06:57:51;;;;;;;116.93;110.53;;;;;;;;;;5116376;28;20511;-81
2022/09/12 07:00:18;;;;;;;107.27;102.07;;;;;;;;;;5116021;27;20462;-80
2022/09/12 07:02:49;;;;;;;126.00;117.67;;;;;;;;;;5117704;28;20454;-81
2022/09/12 07:05:18;;;;;;;26.37;24.17;;;;;;;;;;5115874;28;20411;-80
2022/09/12 07:07:45;;;;;;;243.77;228.60;;;;;;;;;;5116431;28;20454;-82
2022/09/12 07:10:13;;;;;;;94.93;89.63;;;;;;;;;;5115272;28;20475;-81
2022/09/12 07:12:40;;;;;;;254.00;234.43;;;;;;;;;;5115674;28;20440;-85
2022/09/12 07:15:09;;;;;;;282.07;242.23;;;;;;;;;;5115579;28;20543;-80
2022/09/12 07:17:36;;;;;;;80.83;77.03;;;;;;;;;;5115898;28;20491;-79
2022/09/12 07:20:03;;;;;;;264.80;250.67;;;;;;;;;;5114828;28;20979;-78
2022/09/12 07:22:32;;;;;;;205.33;194.50;;;;;;;;;;5115341;28;20806;-82
2022/09/12 07:24:59;;;;;;;204.20;191.63;;;;;;;;;;5116031;28;20459;-78
2022/09/12 07:27:27;;;;;;;65.73;62.07;;;;;;;;;;5116119;28;20826;-79
2022/09/12 07:29:54;;;;;;;166.90;157.93;;;;;;;;;;5115691;28;20456;-78
2022/09/12 07:32:22;;;;;;;229.77;217.67;;;;;;;;;;5116072;28;20788;-79
2022/09/12 07:34:51;;;;;;;341.57;317.87;;;;;;;;;;5116230;28;20887;-80
2022/09/12 07:37:19;;;;;;;105.13;100.23;;;;;;;;;;5115946;28;20433;-79
2022/09/12 07:39:48;;;;;;;300.50;283.67;;;;;;;;;;5116230;28;20486;-79
2022/09/12 07:42:16;;;;;;;277.40;261.17;;;;;;;;;;5116073;28;20411;-78
2022/09/12 07:44:44;;;;;;;223.17;212.10;;;;;;;;;;5116059;28;20619;-78
2022/09/12 07:47:12;;;;;;;117.70;112.10;;;;;;;;;;5095599;28;20490;-82
2022/09/12 07:49:39;;;;;;;362.00;339.07;;;;;;;;;;5094989;28;20506;-85
2022/09/12 07:52:06;;;;;;;369.50;346.17;;;;;;;;;;5095136;28;20787;-85
2022/09/12 07:54:34;;;;;;;250.90;233.87;;;;;;;;;;5095038;28;20420;-85
2022/09/12 07:57:03;;;;;;;350.30;320.23;;;;;;;;;;5095467;28;20770;-85
2022/09/12 07:59:30;;;;;;;317.97;298.83;;;;;;;;;;5110818;28;20489;-79
2022/09/12 08:01:57;;;;;;;352.00;331.77;;;;;;;;;;5114967;28;20773;-84
2022/09/12 08:04:25;;;;;;;324.03;308.40;;;;;;;;;;5115096;28;20442;-84
2022/09/12 08:06:52;;;;;;;381.47;360.77;;;;;;;;;;5104619;28;20892;-85
2022/09/12 08:09:20;;;;;;;291.77;277.13;;;;;;;;;;5094383;28;20442;-84
2022/09/12 08:11:47;;;;;;;396.03;373.80;;;;;;;;;;5094415;28;20490;-78
2022/09/12 08:14:16;;;;;;;339.83;319.47;;;;;;;;;;5094287;28;20430;-84
2022/09/12 08:16:49;;;;;;;288.13;249.07;;;;;;;;;;5094440;28;20942;-83
2022/09/12 08:19:17;;;;;;;123.00;116.30;;;;;;;;;;5093041;28;20503;-84
2022/09/12 08:21:44;;;;;;;405.87;377.83;;;;;;;;;;5093382;28;20433;-84
2022/09/12 08:24:12;;;;;;;50.83;48.03;;;;;;;;;;5093721;28;20449;-84
2022/09/12 08:26:39;;;;;;;251.07;237.50;;;;;;;;;;5094156;28;20800;-85
2022/09/12 08:29:07;;;;;;;190.30;182.27;;;;;;;;;;5093786;28;20480;-78
2022/09/12 08:31:36;;;;;;;47.07;44.47;;;;;;;;;;5094548;28;20453;-79
2022/09/12 08:34:04;;;;;;;171.37;159.23;;;;;;;;;;5096002;28;20481;-88
2022/09/12 08:36:31;;;;;;;413.80;387.57;;;;;;;;;;5099288;28;20436;-80
2022/09/12 08:38:59;;;;;;;390.97;365.60;;;;;;;;;;5094671;28;20461;-79
2022/09/12 08:41:29;;;;;;;413.33;392.57;;;;;;;;;;5097532;28;20431;-79
2022/09/12 08:44:11;;;;;;;28.17;26.57;;;;;;;;;;5097733;28;20450;-80
2022/09/12 08:46:43;;;;;;;169.13;160.00;;;;;;;;;;5085561;28;20967;-79
2022/09/12 08:49:12;;;;;;;466.60;431.73;;;;;;;;;;5100322;28;20477;-81
2022/09/12 08:51:40;;;;;;;290.77;278.60;;;;;;;;;;5097902;28;20434;-80
2022/09/12 08:54:13;;;;;;;426.43;398.50;;;;;;;;;;5097873;28;20450;-79
2022/09/12 08:56:40;;;;;;;100.13;92.53;;;;;;;;;;5098228;28;20829;-80
2022/09/12 08:59:09;;;;;;;481.37;444.33;;;;;;;;;;5098363;28;20493;-80
2022/09/12 09:01:41;;;;;;;463.80;432.23;;;;;;;;;;5097486;28;20441;-80
2022/09/12 09:04:20;;;;;;;388.23;370.70;;;;;;;;;;5098340;28;20947;-80
2022/09/12 09:06:54;;;;;;;430.83;408.13;;;;;;;;;;5097606;28;20821;-79
2022/09/12 09:09:24;;;;;;;461.23;427.70;;;;;;;;;;5097288;28;20454;-80
2022/09/12 09:12:01;;;;;;;448.63;426.30;;;;;;;;;;5097121;28;20466;-80
2022/09/12 09:14:49;;;;;;;118.23;109.50;;;;;;;;;;5097670;28;20420;-79
2022/09/12 09:17:19;;;;;;;378.33;356.40;;;;;;;;;;5097468;28;20497;-80
2022/09/12 09:19:50;;;;;;;160.30;154.10;;;;;;;;;;5097002;28;20491;-80
2022/09/12 09:22:19;;;;;;;250.67;241.00;;;;;;;;;;5097153;28;20449;-80
2022/09/12 09:24:49;;;;;;;455.90;433.80;;;;;;;;;;5097819;28;20454;-80
2022/09/12 09:27:25;;;;;;;520.43;492.83;;;;;;;;;;5097752;28;20439;-80
2022/09/12 09:29:54;;;;;;;449.57;425.73;;;;;;;;;;5097821;28;20492;-80
2022/09/12 09:32:26;;;;;;;139.00;132.97;;;;;;;;;;5097214;28;20449;-80
2022/09/12 09:34:55;;;;;;;128.63;117.00;;;;;;;;;;5096935;28;20439;-80
2022/09/12 09:37:28;;;;;;;437.90;414.27;;;;;;;;;;5097008;28;20463;-80
2022/09/12 09:40:02;;;;;;;403.37;386.37;;;;;;;;;;5097258;28;20487;-80
2022/09/12 09:42:35;;;;;;;493.40;467.80;;;;;;;;;;5097500;28;20416;-80
2022/09/12 09:45:05;;;;;;;470.43;447.20;;;;;;;;;;5097296;28;20428;-80
2022/09/12 09:47:38;;;;;;;433.73;410.70;;;;;;;;;;5098739;28;20443;-80
2022/09/12 09:50:07;;;;;;;516.00;483.63;;;;;;;;;;5097581;28;20485;-81
2022/09/12 09:52:35;;;;;;;401.90;384.80;;;;;;;;;;5096693;28;20450;-80
2022/09/12 09:55:03;;;;;;;556.40;515.37;;;;;;;;;;5097068;28;20464;-79
2022/09/12 09:57:43;;;;;;;558.00;514.63;;;;;;;;;;5096706;28;20476;-80
2022/09/12 10:00:32;;;;;;;502.40;478.80;;;;;;;;;;5097100;28;20483;-80
2022/09/12 10:03:01;;;;;;;483.97;462.10;;;;;;;;;;5096475;28;20936;-79
2022/09/12 10:05:30;;;;;;;416.23;398.20;;;;;;;;;;5096685;28;20510;-79
2022/09/12 10:07:58;;;;;;;474.47;452.77;;;;;;;;;;5096176;28;20914;-80
2022/09/12 10:10:26;;;;;;;473.80;452.40;;;;;;;;;;5096149;28;20457;-80
2022/09/12 10:13:07;;;;;;;536.73;504.63;;;;;;;;;;5095764;28;20433;-80
2022/09/12 10:15:34;;;;;;;541.60;514.80;;;;;;;;;;5096059;28;20466;-80
2022/09/12 10:18:02;;;;;;;426.33;407.33;;;;;;;;;;5096029;28;20513;-81
2022/09/12 10:20:32;;;;;;;560.33;530.13;;;;;;;;;;5096106;28;20519;-80
2022/09/12 10:23:00;;;;;;;526.30;498.90;;;;;;;;;;5095717;28;20425;-80
2022/09/12 10:25:29;;;;;;;655.77;612.67;;;;;;;;;;5096351;28;20455;-79
2022/09/12 10:27:59;;;;;;;97.20;88.67;;;;;;;;;;5095712;28;20448;-80
2022/09/12 10:30:27;;;;;;;639.10;593.83;;;;;;;;;;5095814;28;20885;-80
2022/09/12 10:32:57;;;;;;;631.23;580.57;;;;;;;;;;5094915;28;20940;-80
2022/09/12 10:35:25;;;;;;;630.10;578.13;;;;;;;;;;5095930;28;20447;-81
2022/09/12 10:37:56;;;;;;;496.77;471.17;;;;;;;;;;5095140;28;20941;-80
2022/09/12 10:40:24;;;;;;;662.50;617.13;;;;;;;;;;5095214;28;20482;-79
2022/09/12 10:42:52;;;;;;;644.37;593.90;;;;;;;;;;5095223;28;20933;-79
2022/09/12 10:45:20;;;;;;;650.33;598.57;;;;;;;;;;5095441;28;20462;-81
2022/09/12 10:47:48;;;;;;;573.83;541.57;;;;;;;;;;5094957;28;20455;-79
2022/09/12 10:50:25;;;;;;;464.63;444.50;;;;;;;;;;5095224;28;20470;-80
2022/09/12 10:52:52;;;;;;;591.17;550.10;;;;;;;;;;5094953;28;20459;-80
2022/09/12 10:55:22;;;;;;;508.83;485.10;;;;;;;;;;5095086;28;20812;-79
2022/09/12 10:58:10;;;;;;;558.90;532.40;;;;;;;;;;5094771;28;20867;-80
2022/09/12 11:00:41;;;;;;;588.47;555.27;;;;;;;;;;5091304;28;20494;-80
2022/09/12 11:03:16;;;;;;;609.93;570.83;;;;;;;;;;5093856;28;20486;-80
2022/09/12 11:05:52;;;;;;;509.07;485.70;;;;;;;;;;5094622;28;20447;-80
2022/09/12 11:08:26;;;;;;;386.93;371.10;;;;;;;;;;5094880;28;20435;-79
2022/09/12 11:10:59;;;;;;;632.40;595.70;;;;;;;;;;5094379;28;20442;-80
2022/09/12 11:13:35;;;;;;;458.63;439.03;;;;;;;;;;5094895;28;20442;-79
2022/09/12 11:16:11;;;;;;;540.37;513.70;;;;;;;;;;5094788;28;20473;-80
2022/09/12 11:18:44;;;;;;;549.30;522.23;;;;;;;;;;5094441;28;20953;-79
2022/09/12 11:21:29;;;;;;;301.33;289.93;;;;;;;;;;5094348;28;20450;-80
2022/09/12 11:24:12;;;;;;;429.27;410.20;;;;;;;;;;5095419;28;20406;-80
2022/09/12 11:26:51;;;;;;;53.47;50.67;;;;;;;;;;5095545;28;20438;-80
2022/09/12 11:29:27;;;;;;;533.77;507.23;;;;;;;;;;5095699;28;20455;-80
2022/09/12 11:32:04;;;;;;;612.67;577.63;;;;;;;;;;5095180;28;20778;-80
2022/09/12 11:34:39;;;;;;;585.00;552.33;;;;;;;;;;5095086;28;20870;-80
2022/09/12 11:37:16;;;;;;;597.53;566.43;;;;;;;;;;5094706;28;20432;-79
2022/09/12 11:39:45;;;;;;;536.77;510.57;;;;;;;;;;5094374;28;20798;-80
2022/09/12 11:42:17;;;;;;;655.90;613.60;;;;;;;;;;5094091;28;20423;-80
2022/09/12 11:44:47;;;;;;;527.77;503.17;;;;;;;;;;5094332;28;20428;-80
2022/09/12 11:47:14;;;;;;;488.03;465.20;;;;;;;;;;5094296;28;20426;-79
2022/09/12 11:49:44;;;;;;;361.93;347.93;;;;;;;;;;5093906;28;20446;-80
2022/09/12 11:52:15;;;;;;;216.67;208.47;;;;;;;;;;5094172;28;20445;-79
2022/09/12 11:54:44;;;;;;;502.17;480.17;;;;;;;;;;5094194;28;20435;-80
2022/09/12 11:57:17;;;;;;;442.60;424.33;;;;;;;;;;5093742;28;20456;-80
2022/09/12 11:59:47;;;;;;;541.87;515.67;;;;;;;;;;5094468;28;20483;-79
2022/09/12 12:02:18;;;;;;;561.67;534.50;;;;;;;;;;5093694;28;20390;-80
2022/09/12 12:04:56;;;;;;;575.60;547.37;;;;;;;;;;5093682;28;20413;-80
2022/09/12 12:07:24;;;;;;;90.27;86.43;;;;;;;;;;5094629;28;20440;-80
2022/09/12 12:09:53;;;;;;;354.77;341.27;;;;;;;;;;5094232;28;20584;-79
2022/09/12 12:12:24;;;;;;;456.37;436.97;;;;;;;;;;5093828;28;20838;-79
2022/09/12 12:14:52;;;;;;;411.60;395.20;;;;;;;;;;5096520;28;20415;-79
2022/09/12 12:17:21;;;;;;;109.37;105.00;;;;;;;;;;5098052;28;20447;-80
2022/09/12 12:19:56;;;;;;;29.07;26.97;;;;;;;;;;5097878;28;20461;-80
2022/09/12 12:22:24;;;;;;;454.03;435.23;;;;;;;;;;5097586;28;20778;-79
2022/09/12 12:24:56;;;;;;;537.67;513.20;;;;;;;;;;5097560;28;20457;-80
2022/09/12 12:27:45;;;;;;;267.33;257.60;;;;;;;;;;5097858;28;20462;-80
2022/09/12 12:30:28;;;;;;;448.13;429.57;;;;;;;;;;5097769;28;20463;-80
2022/09/12 12:32:59;;;;;;;588.40;560.57;;;;;;;;;;5097145;28;20443;-80
2022/09/12 12:35:40;;;;;;;662.47;628.23;;;;;;;;;;5098634;28;20512;-81
2022/09/12 12:38:22;;;;;;;490.17;468.67;;;;;;;;;;5098261;28;20451;-80
2022/09/12 12:40:50;;;;;;;85.57;81.57;;;;;;;;;;5097448;28;20508;-82
2022/09/12 12:43:33;;;;;;;30.00;27.90;;;;;;;;;;5097846;28;20512;-81
2022/09/12 12:46:05;;;;;;;193.50;186.23;;;;;;;;;;5096629;28;20455;-80
2022/09/12 12:48:35;;;;;;;319.83;307.73;;;;;;;;;;5097725;28;20443;-80
2022/09/12 12:51:25;;;;;;;58.53;54.10;;;;;;;;;;5097370;28;20438;-80
2022/09/12 12:53:53;;;;;;;27.90;25.90;;;;;;;;;;5097855;28;20455;-80
2022/09/12 12:56:28;;;;;;;28.03;26.03;;;;;;;;;;5097743;28;20436;-80
2022/09/12 12:58:59;;;;;;;28.10;26.17;;;;;;;;;;5097981;28;20454;-80
2022/09/12 13:01:29;;;;;;;28.33;26.43;;;;;;;;;;5097434;28;20817;-80
2022/09/12 13:03:58;;;;;;;27.00;25.20;;;;;;;;;;5097958;28;20456;-81
2022/09/12 13:06:30;;;;;;;31.07;28.87;;;;;;;;;;5097504;28;20509;-80
2022/09/12 13:08:59;;;;;;;26.30;24.53;;;;;;;;;;5098032;28;20570;-80
2022/09/12 13:11:31;;;;;;;44.23;40.53;;;;;;;;;;5096696;28;20564;-80
2022/09/12 13:14:00;;;;;;;32.07;29.90;;;;;;;;;;5097405;28;20426;-80
2022/09/12 13:16:36;;;;;;;43.80;41.30;;;;;;;;;;5097513;28;20426;-81
2022/09/12 13:19:05;;;;;;;30.03;27.83;;;;;;;;;;5097027;28;20468;-81
2022/09/12 13:21:33;;;;;;;27.97;25.77;;;;;;;;;;5096637;28;20459;-80
2022/09/12 13:24:02;;;;;;;28.17;26.07;;;;;;;;;;5097225;28;20812;-80
2022/09/12 13:26:34;;;;;;;29.07;26.90;;;;;;;;;;5095919;28;20480;-80
2022/09/12 13:29:11;;;;;;;31.03;28.30;;;;;;;;;;5096830;28;20496;-81
2022/09/12 13:31:41;;;;;;;109.97;105.50;;;;;;;;;;5096843;28;20478;-80
2022/09/12 13:34:10;;;;;;;341.30;326.33;;;;;;;;;;5096866;28;20453;-80
2022/09/12 13:36:48;;;;;;;29.23;27.10;;;;;;;;;;5096499;28;20435;-80
2022/09/12 13:39:18;;;;;;;26.03;24.10;;;;;;;;;;5096514;28;20474;-80
2022/09/12 13:42:03;;;;;;;49.43;46.97;;;;;;;;;;5096214;28;20475;-80
2022/09/12 13:44:31;;;;;;;27.63;25.50;;;;;;;;;;5096663;28;20467;-80
2022/09/12 13:47:01;;;;;;;27.50;25.50;;;;;;;;;;5095896;28;20402;-79
2022/09/12 13:49:31;;;;;;;453.40;426.43;;;;;;;;;;5096627;28;20810;-77
2022/09/12 13:52:01;;;;;;;499.70;477.13;;;;;;;;;;5096638;28;20539;-78
2022/09/12 13:54:29;;;;;;;55.20;52.57;;;;;;;;;;5096525;28;20790;-78
2022/09/12 13:56:56;;;;;;;123.10;118.37;;;;;;;;;;5095817;28;20444;-77
2022/09/12 13:59:23;;;;;;;80.67;77.27;;;;;;;;;;5095465;28;20490;-78
2022/09/12 14:01:51;;;;;;;389.40;373.87;;;;;;;;;;5095879;28;21017;-78
2022/09/12 14:07:11;;;;;;;529.13;504.67;;;;;;;;;;5096167;28;20554;-79
2022/09/12 14:09:41;;;;;;;444.20;425.60;;;;;;;;;;5096057;28;20447;-78
2022/09/12 14:12:17;;;;;;;242.47;233.40;;;;;;;;;;5095952;28;20456;-77
2022/09/12 14:14:48;;;;;;;385.57;370.90;;;;;;;;;;5096077;28;20429;-77
2022/09/12 14:17:16;;;;;;;227.83;219.23;;;;;;;;;;5095844;28;20443;-78
2022/09/12 14:19:45;;;;;;;27.03;25.17;;;;;;;;;;5095885;28;20450;-78
2022/09/12 14:22:16;;;;;;;26.77;25.07;;;;;;;;;;5095495;28;20431;-79
2022/09/12 14:24:50;;;;;;;26.80;25.10;;;;;;;;;;5096467;28;20402;-79